sensor_id;sensor_type;location;lat;lon;timestamp;temperature;humidity
15705;DHT22;7952;48.396;12.806;2023-04-09T00:01:07;8.70;49.20
15705;DHT22;7952;48.396;12.806;2023-04-09T00:03:35;8.70;49.20
15705;DHT22;7952;48.396;12.806;2023-04-09T00:06:01;8.70;49.30
15705;DHT22;7952;48.396;12.806;2023-04-09T00:08:27;8.70;49.20
15705;DHT22;7952;48.396;12.806;2023-04-09T00:10:53;8.70;49.20
15705;DHT22;7952;48.396;12.806;2023-04-09T00:13:19;8.60;49.10
15705;DHT22;7952;48.396;12.806;2023-04-09T00:15:46;8.70;49.20
15705;DHT22;7952;48.396;12.806;2023-04-09T00:18:12;8.60;49.10
15705;DHT22;7952;48.396;12.806;2023-04-09T00:20:38;8.60;49.70
15705;DHT22;7952;48.396;12.806;2023-04-09T00:23:03;8.60;49.20
15705;DHT22;7952;48.396;12.806;2023-04-09T00:25:29;8.60;49.20
15705;DHT22;7952;48.396;12.806;2023-04-09T00:27:54;8.60;49.20
15705;DHT22;7952;48.396;12.806;2023-04-09T00:30:21;8.60;49.20
15705;DHT22;7952;48.396;12.806;2023-04-09T00:32:46;8.60;49.20
15705;DHT22;7952;48.396;12.806;2023-04-09T00:35:12;8.50;49.20
15705;DHT22;7952;48.396;12.806;2023-04-09T00:37:37;8.50;49.30
15705;DHT22;7952;48.396;12.806;2023-04-09T00:40:03;8.50;49.30
15705;DHT22;7952;48.396;12.806;2023-04-09T00:42:32;8.50;49.30
15705;DHT22;7952;48.396;12.806;2023-04-09T00:44:58;8.50;49.30
15705;DHT22;7952;48.396;12.806;2023-04-09T00:47:24;8.50;49.40
15705;DHT22;7952;48.396;12.806;2023-04-09T00:49:51;8.50;49.40
15705;DHT22;7952;48.396;12.806;2023-04-09T00:52:17;8.50;49.40
15705;DHT22;7952;48.396;12.806;2023-04-09T00:54:42;8.50;49.40
15705;DHT22;7952;48.396;12.806;2023-04-09T00:57:08;8.50;49.40
15705;DHT22;7952;48.396;12.806;2023-04-09T00:59:35;8.50;49.40
15705;DHT22;7952;48.396;12.806;2023-04-09T01:02:01;8.50;49.40
15705;DHT22;7952;48.396;12.806;2023-04-09T01:04:26;8.50;49.30
15705;DHT22;7952;48.396;12.806;2023-04-09T01:07:01;8.50;49.30
15705;DHT22;7952;48.396;12.806;2023-04-09T01:09:36;8.50;49.30
15705;DHT22;7952;48.396;12.806;2023-04-09T01:12:13;8.50;49.30
15705;DHT22;7952;48.396;12.806;2023-04-09T01:14:55;8.50;49.20
15705;DHT22;7952;48.396;12.806;2023-04-09T01:20:00;8.50;49.40
15705;DHT22;7952;48.396;12.806;2023-04-09T01:22:39;8.50;49.40
15705;DHT22;7952;48.396;12.806;2023-04-09T01:25:18;8.50;49.40
15705;DHT22;7952;48.396;12.806;2023-04-09T01:28:03;8.50;49.40
15705;DHT22;7952;48.396;12.806;2023-04-09T01:30:29;8.50;49.40
15705;DHT22;7952;48.396;12.806;2023-04-09T01:32:57;8.50;49.40
15705;DHT22;7952;48.396;12.806;2023-04-09T01:35:24;8.50;49.40
15705;DHT22;7952;48.396;12.806;2023-04-09T01:37:51;8.50;49.40
15705;DHT22;7952;48.396;12.806;2023-04-09T01:40:19;8.50;49.40
15705;DHT22;7952;48.396;12.806;2023-04-09T01:42:46;8.50;49.40
15705;DHT22;7952;48.396;12.806;2023-04-09T01:45:14;8.40;49.40
15705;DHT22;7952;48.396;12.806;2023-04-09T01:47:40;8.40;49.30
15705;DHT22;7952;48.396;12.806;2023-04-09T01:50:06;8.40;49.40
15705;DHT22;7952;48.396;12.806;2023-04-09T01:52:32;8.40;49.40
15705;DHT22;7952;48.396;12.806;2023-04-09T01:54:58;8.40;49.40
15705;DHT22;7952;48.396;12.806;2023-04-09T01:57:23;8.40;49.40
15705;DHT22;7952;48.396;12.806;2023-04-09T01:59:49;8.40;49.50
15705;DHT22;7952;48.396;12.806;2023-04-09T02:02:27;8.40;49.50
15705;DHT22;7952;48.396;12.806;2023-04-09T02:04:57;8.40;49.50
15705;DHT22;7952;48.396;12.806;2023-04-09T02:07:36;8.40;49.50
15705;DHT22;7952;48.396;12.806;2023-04-09T02:10:05;8.40;49.50
15705;DHT22;7952;48.396;12.806;2023-04-09T02:12:36;8.40;49.50
15705;DHT22;7952;48.396;12.806;2023-04-09T02:15:02;8.40;49.50
15705;DHT22;7952;48.396;12.806;2023-04-09T02:17:28;8.40;50.00
15705;DHT22;7952;48.396;12.806;2023-04-09T02:19:53;8.30;49.40
15705;DHT22;7952;48.396;12.806;2023-04-09T02:22:19;8.30;49.50
15705;DHT22;7952;48.396;12.806;2023-04-09T02:24:45;8.30;49.60
15705;DHT22;7952;48.396;12.806;2023-04-09T02:27:11;8.30;49.60
15705;DHT22;7952;48.396;12.806;2023-04-09T02:29:39;8.30;49.60
15705;DHT22;7952;48.396;12.806;2023-04-09T02:32:05;8.30;49.60
15705;DHT22;7952;48.396;12.806;2023-04-09T02:34:31;8.30;49.60
15705;DHT22;7952;48.396;12.806;2023-04-09T02:36:57;8.30;49.60
15705;DHT22;7952;48.396;12.806;2023-04-09T02:39:22;8.30;49.60
15705;DHT22;7952;48.396;12.806;2023-04-09T02:41:48;8.30;49.60
15705;DHT22;7952;48.396;12.806;2023-04-09T02:44:14;8.30;49.60
15705;DHT22;7952;48.396;12.806;2023-04-09T02:46:40;8.30;49.60
15705;DHT22;7952;48.396;12.806;2023-04-09T02:49:07;8.30;49.60
15705;DHT22;7952;48.396;12.806;2023-04-09T02:56:27;8.30;49.60
15705;DHT22;7952;48.396;12.806;2023-04-09T02:58:52;8.40;49.70
15705;DHT22;7952;48.396;12.806;2023-04-09T03:01:19;8.40;49.60
15705;DHT22;7952;48.396;12.806;2023-04-09T03:03:45;8.40;49.70
15705;DHT22;7952;48.396;12.806;2023-04-09T03:06:10;8.40;49.70
15705;DHT22;7952;48.396;12.806;2023-04-09T03:08:36;8.40;49.60
15705;DHT22;7952;48.396;12.806;2023-04-09T03:11:01;8.40;49.70
15705;DHT22;7952;48.396;12.806;2023-04-09T03:13:27;8.40;49.60
15705;DHT22;7952;48.396;12.806;2023-04-09T03:15:53;8.40;49.70
15705;DHT22;7952;48.396;12.806;2023-04-09T03:18:18;8.40;49.70
15705;DHT22;7952;48.396;12.806;2023-04-09T03:20:44;8.40;49.70
15705;DHT22;7952;48.396;12.806;2023-04-09T03:23:10;8.40;49.70
15705;DHT22;7952;48.396;12.806;2023-04-09T03:25:35;8.40;49.70
15705;DHT22;7952;48.396;12.806;2023-04-09T03:28:01;8.40;49.70
15705;DHT22;7952;48.396;12.806;2023-04-09T03:30:27;8.40;49.70
15705;DHT22;7952;48.396;12.806;2023-04-09T03:32:53;8.30;49.60
15705;DHT22;7952;48.396;12.806;2023-04-09T03:35:19;8.40;49.70
15705;DHT22;7952;48.396;12.806;2023-04-09T03:37:44;8.30;49.70
15705;DHT22;7952;48.396;12.806;2023-04-09T03:40:10;8.30;49.70
15705;DHT22;7952;48.396;12.806;2023-04-09T03:42:36;8.30;49.70
15705;DHT22;7952;48.396;12.806;2023-04-09T03:45:03;8.30;50.30
15705;DHT22;7952;48.396;12.806;2023-04-09T03:47:29;8.30;49.70
15705;DHT22;7952;48.396;12.806;2023-04-09T03:49:54;8.30;50.30
15705;DHT22;7952;48.396;12.806;2023-04-09T03:52:20;8.30;49.80
15705;DHT22;7952;48.396;12.806;2023-04-09T03:54:46;8.30;49.80
15705;DHT22;7952;48.396;12.806;2023-04-09T03:57:11;8.30;49.80
15705;DHT22;7952;48.396;12.806;2023-04-09T03:59:37;8.30;49.80
15705;DHT22;7952;48.396;12.806;2023-04-09T04:02:02;8.20;49.70
15705;DHT22;7952;48.396;12.806;2023-04-09T04:04:28;8.30;49.90
15705;DHT22;7952;48.396;12.806;2023-04-09T04:06:53;8.20;49.80
15705;DHT22;7952;48.396;12.806;2023-04-09T04:09:19;8.30;49.90
15705;DHT22;7952;48.396;12.806;2023-04-09T04:11:44;8.20;49.80
15705;DHT22;7952;48.396;12.806;2023-04-09T04:14:10;8.20;49.90
15705;DHT22;7952;48.396;12.806;2023-04-09T04:16:36;8.30;50.00
15705;DHT22;7952;48.396;12.806;2023-04-09T04:19:01;8.20;49.90
15705;DHT22;7952;48.396;12.806;2023-04-09T04:21:27;8.20;49.90
15705;DHT22;7952;48.396;12.806;2023-04-09T04:23:52;8.30;50.00
15705;DHT22;7952;48.396;12.806;2023-04-09T04:26:18;8.30;50.00
15705;DHT22;7952;48.396;12.806;2023-04-09T04:28:43;8.20;49.90
15705;DHT22;7952;48.396;12.806;2023-04-09T04:31:10;8.30;50.00
15705;DHT22;7952;48.396;12.806;2023-04-09T04:33:39;8.20;49.90
15705;DHT22;7952;48.396;12.806;2023-04-09T04:36:09;8.20;49.90
15705;DHT22;7952;48.396;12.806;2023-04-09T04:38:35;8.20;49.90
15705;DHT22;7952;48.396;12.806;2023-04-09T04:41:01;8.20;49.90
15705;DHT22;7952;48.396;12.806;2023-04-09T04:43:27;8.20;49.90
15705;DHT22;7952;48.396;12.806;2023-04-09T04:45:53;8.20;50.00
15705;DHT22;7952;48.396;12.806;2023-04-09T04:48:19;8.20;50.00
15705;DHT22;7952;48.396;12.806;2023-04-09T04:50:44;8.20;50.00
15705;DHT22;7952;48.396;12.806;2023-04-09T04:53:10;8.20;50.00
15705;DHT22;7952;48.396;12.806;2023-04-09T04:55:36;8.20;50.00
15705;DHT22;7952;48.396;12.806;2023-04-09T04:58:04;8.10;49.90
15705;DHT22;7952;48.396;12.806;2023-04-09T05:00:29;8.10;50.00
15705;DHT22;7952;48.396;12.806;2023-04-09T05:02:55;8.20;50.00
15705;DHT22;7952;48.396;12.806;2023-04-09T05:05:21;8.10;50.00
15705;DHT22;7952;48.396;12.806;2023-04-09T05:07:46;8.10;50.00
15705;DHT22;7952;48.396;12.806;2023-04-09T05:10:12;8.10;50.00
15705;DHT22;7952;48.396;12.806;2023-04-09T05:12:38;8.10;50.10
15705;DHT22;7952;48.396;12.806;2023-04-09T05:15:04;8.10;50.10
15705;DHT22;7952;48.396;12.806;2023-04-09T05:17:30;8.10;50.70
15705;DHT22;7952;48.396;12.806;2023-04-09T05:19:55;8.10;50.10
15705;DHT22;7952;48.396;12.806;2023-04-09T05:22:22;8.10;50.20
15705;DHT22;7952;48.396;12.806;2023-04-09T05:24:48;8.10;50.20
15705;DHT22;7952;48.396;12.806;2023-04-09T05:27:13;8.00;50.10
15705;DHT22;7952;48.396;12.806;2023-04-09T05:29:39;8.10;50.20
15705;DHT22;7952;48.396;12.806;2023-04-09T05:32:04;8.10;50.20
15705;DHT22;7952;48.396;12.806;2023-04-09T05:34:31;8.00;50.20
15705;DHT22;7952;48.396;12.806;2023-04-09T05:36:56;8.10;50.20
15705;DHT22;7952;48.396;12.806;2023-04-09T05:39:22;8.10;50.20
15705;DHT22;7952;48.396;12.806;2023-04-09T05:41:47;8.10;50.20
15705;DHT22;7952;48.396;12.806;2023-04-09T05:44:13;8.10;50.30
15705;DHT22;7952;48.396;12.806;2023-04-09T05:46:38;8.10;50.20
15705;DHT22;7952;48.396;12.806;2023-04-09T05:49:04;8.20;50.80
15705;DHT22;7952;48.396;12.806;2023-04-09T05:51:30;8.20;50.30
15705;DHT22;7952;48.396;12.806;2023-04-09T05:53:56;8.20;50.30
15705;DHT22;7952;48.396;12.806;2023-04-09T05:56:21;8.20;50.30
15705;DHT22;7952;48.396;12.806;2023-04-09T05:58:47;8.30;50.30
15705;DHT22;7952;48.396;12.806;2023-04-09T06:01:13;8.30;50.30
15705;DHT22;7952;48.396;12.806;2023-04-09T06:03:38;8.30;50.20
15705;DHT22;7952;48.396;12.806;2023-04-09T06:06:05;8.40;50.30
15705;DHT22;7952;48.396;12.806;2023-04-09T06:08:30;8.40;50.20
15705;DHT22;7952;48.396;12.806;2023-04-09T06:10:57;8.40;50.20
15705;DHT22;7952;48.396;12.806;2023-04-09T06:13:23;8.40;50.20
15705;DHT22;7952;48.396;12.806;2023-04-09T06:15:49;8.40;50.20
15705;DHT22;7952;48.396;12.806;2023-04-09T06:18:14;8.50;50.20
15705;DHT22;7952;48.396;12.806;2023-04-09T06:20:40;8.50;50.20
15705;DHT22;7952;48.396;12.806;2023-04-09T06:23:06;8.50;50.20
15705;DHT22;7952;48.396;12.806;2023-04-09T06:25:31;8.50;50.20
15705;DHT22;7952;48.396;12.806;2023-04-09T06:27:57;8.50;50.20
15705;DHT22;7952;48.396;12.806;2023-04-09T06:30:22;8.50;50.20
15705;DHT22;7952;48.396;12.806;2023-04-09T06:32:49;8.60;50.30
15705;DHT22;7952;48.396;12.806;2023-04-09T06:35:14;8.60;50.30
15705;DHT22;7952;48.396;12.806;2023-04-09T06:37:40;8.60;50.30
15705;DHT22;7952;48.396;12.806;2023-04-09T06:40:06;8.60;50.30
15705;DHT22;7952;48.396;12.806;2023-04-09T06:42:32;8.70;50.40
15705;DHT22;7952;48.396;12.806;2023-04-09T06:44:58;8.80;50.40
15705;DHT22;7952;48.396;12.806;2023-04-09T06:47:23;8.80;50.40
15705;DHT22;7952;48.396;12.806;2023-04-09T06:49:49;8.90;50.40
15705;DHT22;7952;48.396;12.806;2023-04-09T06:52:14;9.00;50.50
15705;DHT22;7952;48.396;12.806;2023-04-09T06:54:40;9.00;50.40
15705;DHT22;7952;48.396;12.806;2023-04-09T06:57:07;9.10;50.50
15705;DHT22;7952;48.396;12.806;2023-04-09T06:59:32;9.20;50.50
15705;DHT22;7952;48.396;12.806;2023-04-09T07:01:58;9.20;50.40
15705;DHT22;7952;48.396;12.806;2023-04-09T07:04:24;9.30;50.40
15705;DHT22;7952;48.396;12.806;2023-04-09T07:06:50;9.40;50.30
15705;DHT22;7952;48.396;12.806;2023-04-09T07:09:19;9.40;50.30
15705;DHT22;7952;48.396;12.806;2023-04-09T07:11:44;9.50;50.30
15705;DHT22;7952;48.396;12.806;2023-04-09T07:14:10;9.50;50.20
15705;DHT22;7952;48.396;12.806;2023-04-09T07:16:36;9.50;50.20
15705;DHT22;7952;48.396;12.806;2023-04-09T07:19:01;9.50;50.10
15705;DHT22;7952;48.396;12.806;2023-04-09T07:21:27;9.50;50.20
15705;DHT22;7952;48.396;12.806;2023-04-09T07:23:53;9.50;50.20
15705;DHT22;7952;48.396;12.806;2023-04-09T07:26:18;9.50;50.20
15705;DHT22;7952;48.396;12.806;2023-04-09T07:28:44;9.60;50.30
15705;DHT22;7952;48.396;12.806;2023-04-09T07:31:10;9.60;50.30
15705;DHT22;7952;48.396;12.806;2023-04-09T07:33:36;9.60;50.40
15705;DHT22;7952;48.396;12.806;2023-04-09T07:36:01;9.60;50.30
15705;DHT22;7952;48.396;12.806;2023-04-09T07:38:30;9.70;50.40
15705;DHT22;7952;48.396;12.806;2023-04-09T07:40:56;9.70;50.40
15705;DHT22;7952;48.396;12.806;2023-04-09T07:43:21;9.80;50.40
15705;DHT22;7952;48.396;12.806;2023-04-09T07:45:50;9.80;50.40
15705;DHT22;7952;48.396;12.806;2023-04-09T07:48:16;9.90;50.40
15705;DHT22;7952;48.396;12.806;2023-04-09T07:50:42;9.80;50.30
15705;DHT22;7952;48.396;12.806;2023-04-09T07:53:09;9.90;50.40
15705;DHT22;7952;48.396;12.806;2023-04-09T07:55:35;9.90;50.30
15705;DHT22;7952;48.396;12.806;2023-04-09T07:58:00;9.90;50.40
15705;DHT22;7952;48.396;12.806;2023-04-09T08:00:26;9.90;50.40
15705;DHT22;7952;48.396;12.806;2023-04-09T08:02:51;9.90;50.40
15705;DHT22;7952;48.396;12.806;2023-04-09T08:05:17;9.90;50.40
15705;DHT22;7952;48.396;12.806;2023-04-09T08:07:42;9.80;50.40
15705;DHT22;7952;48.396;12.806;2023-04-09T08:10:08;9.80;50.40
15705;DHT22;7952;48.396;12.806;2023-04-09T08:12:39;9.80;50.40
15705;DHT22;7952;48.396;12.806;2023-04-09T08:15:05;9.80;50.50
15705;DHT22;7952;48.396;12.806;2023-04-09T08:17:31;9.80;50.50
15705;DHT22;7952;48.396;12.806;2023-04-09T08:19:56;9.90;50.60
15705;DHT22;7952;48.396;12.806;2023-04-09T08:22:22;9.90;50.60
15705;DHT22;7952;48.396;12.806;2023-04-09T08:24:51;9.90;50.60
15705;DHT22;7952;48.396;12.806;2023-04-09T08:27:17;10.00;49.70
15705;DHT22;7952;48.396;12.806;2023-04-09T08:29:43;10.00;49.60
15705;DHT22;7952;48.396;12.806;2023-04-09T08:32:08;10.10;49.70
15705;DHT22;7952;48.396;12.806;2023-04-09T08:34:34;10.10;49.60
15705;DHT22;7952;48.396;12.806;2023-04-09T08:37:00;10.10;49.70
15705;DHT22;7952;48.396;12.806;2023-04-09T08:39:26;10.10;49.50
15705;DHT22;7952;48.396;12.806;2023-04-09T08:41:51;10.10;49.50
15705;DHT22;7952;48.396;12.806;2023-04-09T08:44:17;10.20;49.60
15705;DHT22;7952;48.396;12.806;2023-04-09T08:46:43;10.20;49.60
15705;DHT22;7952;48.396;12.806;2023-04-09T08:49:09;10.20;49.70
15705;DHT22;7952;48.396;12.806;2023-04-09T08:51:35;10.20;49.60
15705;DHT22;7952;48.396;12.806;2023-04-09T08:54:01;10.20;49.60
15705;DHT22;7952;48.396;12.806;2023-04-09T08:58:55;10.30;49.70
15705;DHT22;7952;48.396;12.806;2023-04-09T09:01:30;10.40;49.70
15705;DHT22;7952;48.396;12.806;2023-04-09T09:06:29;10.40;49.70
15705;DHT22;7952;48.396;12.806;2023-04-09T09:09:04;10.50;49.70
15705;DHT22;7952;48.396;12.806;2023-04-09T09:11:31;10.50;49.70
15705;DHT22;7952;48.396;12.806;2023-04-09T09:14:01;10.50;49.70
15705;DHT22;7952;48.396;12.806;2023-04-09T09:16:27;10.60;49.70
15705;DHT22;7952;48.396;12.806;2023-04-09T09:18:53;10.70;49.80
15705;DHT22;7952;48.396;12.806;2023-04-09T09:21:20;10.80;49.80
15705;DHT22;7952;48.396;12.806;2023-04-09T09:23:46;10.80;49.90
15705;DHT22;7952;48.396;12.806;2023-04-09T09:26:19;10.90;50.00
15705;DHT22;7952;48.396;12.806;2023-04-09T09:28:46;11.00;50.00
15705;DHT22;7952;48.396;12.806;2023-04-09T09:31:12;11.10;50.00
15705;DHT22;7952;48.396;12.806;2023-04-09T09:33:38;11.30;50.00
15705;DHT22;7952;48.396;12.806;2023-04-09T09:36:04;11.30;50.00
15705;DHT22;7952;48.396;12.806;2023-04-09T09:38:31;11.50;50.00
15705;DHT22;7952;48.396;12.806;2023-04-09T09:40:57;11.60;50.00
15705;DHT22;7952;48.396;12.806;2023-04-09T09:43:23;11.70;49.90
15705;DHT22;7952;48.396;12.806;2023-04-09T09:45:49;11.90;49.90
15705;DHT22;7952;48.396;12.806;2023-04-09T09:48:15;12.00;49.80
15705;DHT22;7952;48.396;12.806;2023-04-09T09:50:41;12.10;49.70
15705;DHT22;7952;48.396;12.806;2023-04-09T09:53:09;12.20;49.60
15705;DHT22;7952;48.396;12.806;2023-04-09T09:55:39;12.40;49.70
15705;DHT22;7952;48.396;12.806;2023-04-09T09:58:15;12.50;49.70
15705;DHT22;7952;48.396;12.806;2023-04-09T10:00:42;12.70;49.70
15705;DHT22;7952;48.396;12.806;2023-04-09T10:03:20;12.80;49.60
15705;DHT22;7952;48.396;12.806;2023-04-09T10:05:48;13.00;49.60
15705;DHT22;7952;48.396;12.806;2023-04-09T10:08:14;13.20;49.70
15705;DHT22;7952;48.396;12.806;2023-04-09T10:10:42;13.20;49.40
15705;DHT22;7952;48.396;12.806;2023-04-09T10:13:17;13.30;49.40
15705;DHT22;7952;48.396;12.806;2023-04-09T10:15:45;13.40;49.40
15705;DHT22;7952;48.396;12.806;2023-04-09T10:18:12;13.40;49.30
15705;DHT22;7952;48.396;12.806;2023-04-09T10:20:56;13.40;49.30
15705;DHT22;7952;48.396;12.806;2023-04-09T10:23:41;13.40;49.20
15705;DHT22;7952;48.396;12.806;2023-04-09T10:26:07;13.30;49.30
15705;DHT22;7952;48.396;12.806;2023-04-09T10:28:32;13.30;49.40
15705;DHT22;7952;48.396;12.806;2023-04-09T10:30:58;13.30;49.40
15705;DHT22;7952;48.396;12.806;2023-04-09T10:33:26;13.30;49.50
15705;DHT22;7952;48.396;12.806;2023-04-09T10:36:00;13.30;49.50
15705;DHT22;7952;48.396;12.806;2023-04-09T10:38:37;13.30;49.60
15705;DHT22;7952;48.396;12.806;2023-04-09T10:41:15;13.30;49.60
15705;DHT22;7952;48.396;12.806;2023-04-09T10:43:46;13.30;49.70
15705;DHT22;7952;48.396;12.806;2023-04-09T10:46:29;13.40;49.70
15705;DHT22;7952;48.396;12.806;2023-04-09T10:49:14;13.40;49.70
15705;DHT22;7952;48.396;12.806;2023-04-09T10:51:40;13.60;49.80
15705;DHT22;7952;48.396;12.806;2023-04-09T10:59:46;14.10;50.00
15705;DHT22;7952;48.396;12.806;2023-04-09T11:07:46;14.80;49.80
15705;DHT22;7952;48.396;12.806;2023-04-09T11:10:12;14.90;49.60
15705;DHT22;7952;48.396;12.806;2023-04-09T11:12:37;14.90;49.30
15705;DHT22;7952;48.396;12.806;2023-04-09T11:15:03;14.80;48.70
15705;DHT22;7952;48.396;12.806;2023-04-09T11:17:29;14.60;48.60
15705;DHT22;7952;48.396;12.806;2023-04-09T11:19:55;14.40;48.90
15705;DHT22;7952;48.396;12.806;2023-04-09T11:22:20;14.20;49.10
15705;DHT22;7952;48.396;12.806;2023-04-09T11:24:46;14.00;49.20
15705;DHT22;7952;48.396;12.806;2023-04-09T11:27:12;13.90;49.40
15705;DHT22;7952;48.396;12.806;2023-04-09T11:29:38;13.80;49.40
15705;DHT22;7952;48.396;12.806;2023-04-09T11:32:04;13.80;50.10
15705;DHT22;7952;48.396;12.806;2023-04-09T11:34:32;13.70;49.50
15705;DHT22;7952;48.396;12.806;2023-04-09T11:36:58;13.70;49.70
15705;DHT22;7952;48.396;12.806;2023-04-09T11:39:26;13.60;49.70
15705;DHT22;7952;48.396;12.806;2023-04-09T11:41:52;13.70;49.90
15705;DHT22;7952;48.396;12.806;2023-04-09T11:44:19;13.70;49.80
15705;DHT22;7952;48.396;12.806;2023-04-09T11:46:46;13.70;49.60
15705;DHT22;7952;48.396;12.806;2023-04-09T11:49:12;13.60;49.40
15705;DHT22;7952;48.396;12.806;2023-04-09T11:51:38;13.50;49.40
15705;DHT22;7952;48.396;12.806;2023-04-09T11:54:07;13.40;49.40
15705;DHT22;7952;48.396;12.806;2023-04-09T11:56:34;13.30;49.50
15705;DHT22;7952;48.396;12.806;2023-04-09T11:59:01;13.20;49.60
15705;DHT22;7952;48.396;12.806;2023-04-09T12:01:31;13.20;49.70
15705;DHT22;7952;48.396;12.806;2023-04-09T12:03:58;13.20;49.70
15705;DHT22;7952;48.396;12.806;2023-04-09T12:06:25;13.10;49.70
15705;DHT22;7952;48.396;12.806;2023-04-09T12:08:58;13.10;49.70
15705;DHT22;7952;48.396;12.806;2023-04-09T12:11:28;13.10;49.80
15705;DHT22;7952;48.396;12.806;2023-04-09T12:14:00;13.10;49.90
15705;DHT22;7952;48.396;12.806;2023-04-09T12:16:29;13.20;50.10
15705;DHT22;7952;48.396;12.806;2023-04-09T12:18:55;13.20;50.10
15705;DHT22;7952;48.396;12.806;2023-04-09T12:21:24;13.40;50.20
15705;DHT22;7952;48.396;12.806;2023-04-09T12:23:51;13.50;50.10
15705;DHT22;7952;48.396;12.806;2023-04-09T12:26:16;13.60;50.10
15705;DHT22;7952;48.396;12.806;2023-04-09T12:28:42;13.80;50.20
15705;DHT22;7952;48.396;12.806;2023-04-09T12:31:10;14.00;50.10
15705;DHT22;7952;48.396;12.806;2023-04-09T12:33:36;14.20;50.00
15705;DHT22;7952;48.396;12.806;2023-04-09T12:36:03;14.40;49.90
15705;DHT22;7952;48.396;12.806;2023-04-09T12:38:28;14.60;49.90
15705;DHT22;7952;48.396;12.806;2023-04-09T12:40:54;14.80;49.70
15705;DHT22;7952;48.396;12.806;2023-04-09T12:43:20;15.10;49.70
15705;DHT22;7952;48.396;12.806;2023-04-09T12:45:45;15.30;49.70
15705;DHT22;7952;48.396;12.806;2023-04-09T12:48:11;15.50;49.60
15705;DHT22;7952;48.396;12.806;2023-04-09T12:50:36;15.70;49.40
15705;DHT22;7952;48.396;12.806;2023-04-09T12:53:02;15.80;49.00
15705;DHT22;7952;48.396;12.806;2023-04-09T12:55:28;15.80;48.70
15705;DHT22;7952;48.396;12.806;2023-04-09T12:57:53;15.80;48.60
15705;DHT22;7952;48.396;12.806;2023-04-09T13:00:19;15.70;48.60
15705;DHT22;7952;48.396;12.806;2023-04-09T13:02:45;15.60;48.30
15705;DHT22;7952;48.396;12.806;2023-04-09T13:05:10;15.50;48.20
15705;DHT22;7952;48.396;12.806;2023-04-09T13:07:36;15.40;48.50
15705;DHT22;7952;48.396;12.806;2023-04-09T13:10:01;15.30;48.60
15705;DHT22;7952;48.396;12.806;2023-04-09T13:12:27;15.20;48.60
15705;DHT22;7952;48.396;12.806;2023-04-09T13:14:53;15.20;48.50
15705;DHT22;7952;48.396;12.806;2023-04-09T13:17:19;15.20;48.70
15705;DHT22;7952;48.396;12.806;2023-04-09T13:19:44;15.10;48.60
15705;DHT22;7952;48.396;12.806;2023-04-09T13:22:10;15.00;48.50
15705;DHT22;7952;48.396;12.806;2023-04-09T13:24:37;15.00;48.60
15705;DHT22;7952;48.396;12.806;2023-04-09T13:27:03;14.90;48.60
15705;DHT22;7952;48.396;12.806;2023-04-09T13:29:29;14.90;48.80
15705;DHT22;7952;48.396;12.806;2023-04-09T13:31:55;14.80;48.80
15705;DHT22;7952;48.396;12.806;2023-04-09T13:34:22;14.80;48.90
15705;DHT22;7952;48.396;12.806;2023-04-09T13:36:47;14.80;49.00
15705;DHT22;7952;48.396;12.806;2023-04-09T13:39:13;14.70;49.00
15705;DHT22;7952;48.396;12.806;2023-04-09T13:41:38;14.80;49.10
15705;DHT22;7952;48.396;12.806;2023-04-09T13:44:04;14.80;49.10
15705;DHT22;7952;48.396;12.806;2023-04-09T13:46:30;14.90;49.20
15705;DHT22;7952;48.396;12.806;2023-04-09T13:48:56;15.00;49.10
15705;DHT22;7952;48.396;12.806;2023-04-09T13:51:22;15.10;49.20
15705;DHT22;7952;48.396;12.806;2023-04-09T13:53:48;15.30;49.20
15705;DHT22;7952;48.396;12.806;2023-04-09T13:56:14;15.40;48.80
15705;DHT22;7952;48.396;12.806;2023-04-09T13:58:40;15.50;48.60
15705;DHT22;7952;48.396;12.806;2023-04-09T14:01:07;15.50;48.40
15705;DHT22;7952;48.396;12.806;2023-04-09T14:03:33;15.40;48.20
15705;DHT22;7952;48.396;12.806;2023-04-09T14:05:58;15.20;47.90
15705;DHT22;7952;48.396;12.806;2023-04-09T14:08:24;15.10;47.80
15705;DHT22;7952;48.396;12.806;2023-04-09T14:10:50;14.90;47.80
15705;DHT22;7952;48.396;12.806;2023-04-09T14:13:15;14.80;48.00
15705;DHT22;7952;48.396;12.806;2023-04-09T14:15:41;14.60;47.90
15705;DHT22;7952;48.396;12.806;2023-04-09T14:18:08;14.50;47.90
15705;DHT22;7952;48.396;12.806;2023-04-09T14:20:34;14.40;48.00
15705;DHT22;7952;48.396;12.806;2023-04-09T14:23:00;14.20;48.00
15705;DHT22;7952;48.396;12.806;2023-04-09T14:25:26;14.20;48.30
15705;DHT22;7952;48.396;12.806;2023-04-09T14:27:51;14.10;48.40
15705;DHT22;7952;48.396;12.806;2023-04-09T14:30:17;14.10;48.60
15705;DHT22;7952;48.396;12.806;2023-04-09T14:32:42;14.10;48.70
15705;DHT22;7952;48.396;12.806;2023-04-09T14:35:08;14.20;48.70
15705;DHT22;7952;48.396;12.806;2023-04-09T14:37:34;14.30;48.70
15705;DHT22;7952;48.396;12.806;2023-04-09T14:39:59;14.40;48.70
15705;DHT22;7952;48.396;12.806;2023-04-09T14:42:25;14.50;48.60
15705;DHT22;7952;48.396;12.806;2023-04-09T14:44:50;14.60;48.50
15705;DHT22;7952;48.396;12.806;2023-04-09T14:47:16;14.60;48.50
15705;DHT22;7952;48.396;12.806;2023-04-09T14:49:41;14.70;48.40
15705;DHT22;7952;48.396;12.806;2023-04-09T14:52:07;14.70;48.30
15705;DHT22;7952;48.396;12.806;2023-04-09T14:54:32;14.70;48.30
15705;DHT22;7952;48.396;12.806;2023-04-09T14:59:29;14.60;48.20
15705;DHT22;7952;48.396;12.806;2023-04-09T15:02:15;14.60;48.30
15705;DHT22;7952;48.396;12.806;2023-04-09T15:04:53;14.60;48.20
15705;DHT22;7952;48.396;12.806;2023-04-09T15:07:31;14.60;48.20
15705;DHT22;7952;48.396;12.806;2023-04-09T15:16:26;14.60;48.20
15705;DHT22;7952;48.396;12.806;2023-04-09T15:55:22;13.60;48.00
15705;DHT22;7952;48.396;12.806;2023-04-09T15:57:51;13.50;48.00
15705;DHT22;7952;48.396;12.806;2023-04-09T16:00:37;13.40;48.10
15705;DHT22;7952;48.396;12.806;2023-04-09T16:03:05;13.40;48.20
15705;DHT22;7952;48.396;12.806;2023-04-09T16:05:31;13.40;48.20
15705;DHT22;7952;48.396;12.806;2023-04-09T16:08:29;13.30;48.20
15705;DHT22;7952;48.396;12.806;2023-04-09T16:11:15;13.40;48.40
15705;DHT22;7952;48.396;12.806;2023-04-09T16:13:41;13.30;48.20
15705;DHT22;7952;48.396;12.806;2023-04-09T16:16:07;13.30;48.20
15705;DHT22;7952;48.396;12.806;2023-04-09T16:18:33;13.30;48.30
15705;DHT22;7952;48.396;12.806;2023-04-09T16:20:59;13.30;48.20
15705;DHT22;7952;48.396;12.806;2023-04-09T16:23:26;13.30;48.20
15705;DHT22;7952;48.396;12.806;2023-04-09T16:26:04;13.30;48.20
15705;DHT22;7952;48.396;12.806;2023-04-09T16:28:30;13.20;48.10
15705;DHT22;7952;48.396;12.806;2023-04-09T16:31:19;13.20;48.20
15705;DHT22;7952;48.396;12.806;2023-04-09T16:33:45;13.20;48.20
15705;DHT22;7952;48.396;12.806;2023-04-09T16:36:11;13.20;48.20
15705;DHT22;7952;48.396;12.806;2023-04-09T16:38:40;13.10;48.20
15705;DHT22;7952;48.396;12.806;2023-04-09T16:41:05;13.10;48.10
15705;DHT22;7952;48.396;12.806;2023-04-09T16:43:31;13.10;48.20
15705;DHT22;7952;48.396;12.806;2023-04-09T16:45:57;13.00;48.00
15705;DHT22;7952;48.396;12.806;2023-04-09T16:48:23;13.00;48.10